createdAt,value
2017-11-19T00:02:24.398Z,79.75
2017-11-19T00:04:54.357Z,79.44
2017-11-19T00:07:22.231Z,79.51
2017-11-19T00:09:50.782Z,79.44
2017-11-19T00:12:19.680Z,78.96
2017-11-19T00:14:48.012Z,79.19
2017-11-19T00:17:15.499Z,79.23
2017-11-19T00:19:43.016Z,79.26
2017-11-19T00:22:10.573Z,79.20
2017-11-19T00:24:38.040Z,78.94
2017-11-19T00:27:05.595Z,78.99
2017-11-19T00:29:33.261Z,78.76
2017-11-19T00:32:00.741Z,78.85
2017-11-19T00:34:28.490Z,78.80
2017-11-19T00:36:56.025Z,78.75
2017-11-19T00:39:23.516Z,78.48
2017-11-19T00:41:51.052Z,78.33
2017-11-19T00:44:18.569Z,77.98
2017-11-19T00:46:46.087Z,78.03
2017-11-19T00:49:14.253Z,77.80
2017-11-19T00:51:41.847Z,77.70
2017-11-19T00:54:09.359Z,77.90
2017-11-19T00:56:36.821Z,78.04
2017-11-19T00:59:04.334Z,77.83
2017-11-19T01:01:32.705Z,77.89
2017-11-19T01:04:00.209Z,77.52
2017-11-19T01:06:27.726Z,77.68
2017-11-19T01:11:48.202Z,77.69
2017-11-19T01:14:15.661Z,77.72
2017-11-19T01:16:43.123Z,77.77
2017-11-19T01:19:10.580Z,78.01
2017-11-19T01:21:38.056Z,78.13
2017-11-19T01:24:05.563Z,78.43
2017-11-19T01:26:33.029Z,78.35
2017-11-19T01:29:00.513Z,78.64
2017-11-19T01:31:28.836Z,78.68
2017-11-19T01:33:56.387Z,78.88
2017-11-19T01:36:23.835Z,79.07
2017-11-19T01:38:51.319Z,78.92
2017-11-19T01:41:18.849Z,78.99
2017-11-19T01:43:46.375Z,78.87
2017-11-19T01:46:13.868Z,78.77
2017-11-19T01:48:41.371Z,78.93
2017-11-19T01:51:09.089Z,79.10
2017-11-19T01:53:36.613Z,79.07
2017-11-19T01:56:04.723Z,79.09
2017-11-19T01:58:32.192Z,79.07
2017-11-19T02:00:59.683Z,79.26
2017-11-19T02:03:28.186Z,79.34
2017-11-19T02:05:55.643Z,79.47
2017-11-19T02:08:33.089Z,79.18
2017-11-19T02:11:00.871Z,79.33
2017-11-19T02:13:28.336Z,79.40
2017-11-19T02:15:55.824Z,79.22
2017-11-19T02:18:23.266Z,79.12
2017-11-19T02:20:50.705Z,79.09
2017-11-19T02:23:18.203Z,79.00
2017-11-19T02:25:45.727Z,79.14
2017-11-19T02:28:13.284Z,78.95
2017-11-19T02:30:40.746Z,78.50
2017-11-19T02:33:08.259Z,78.54
2017-11-19T02:35:35.811Z,78.70
2017-11-19T02:38:03.336Z,78.45
2017-11-19T02:40:30.890Z,78.48
2017-11-19T02:42:58.455Z,78.37
2017-11-19T02:45:26.048Z,78.39
2017-11-19T02:47:53.561Z,78.30
2017-11-19T02:50:21.061Z,78.05
2017-11-19T02:52:48.521Z,77.96
2017-11-19T02:55:16.073Z,78.08
2017-11-19T02:57:43.516Z,78.33
2017-11-19T03:00:11.015Z,78.21
2017-11-19T03:02:38.506Z,78.23
2017-11-19T03:05:06.029Z,78.34
2017-11-19T03:07:33.504Z,78.22
2017-11-19T03:10:01.205Z,78.35
2017-11-19T03:12:28.688Z,78.39
2017-11-19T03:14:56.162Z,78.39
2017-11-19T03:17:23.605Z,78.42
2017-11-19T03:19:51.154Z,78.57
2017-11-19T03:22:18.596Z,78.70
2017-11-19T03:24:46.086Z,78.53
2017-11-19T03:27:13.613Z,78.61
2017-11-19T03:29:41.109Z,78.79
2017-11-19T03:32:08.570Z,79.00
2017-11-19T03:34:36.027Z,79.18
2017-11-19T03:37:03.532Z,79.43
2017-11-19T03:39:31.003Z,79.85
2017-11-19T03:41:58.513Z,80.12
2017-11-19T03:44:25.953Z,80.24
2017-11-19T03:46:53.381Z,80.43
2017-11-19T03:49:20.837Z,80.63
2017-11-19T03:51:48.573Z,80.83
2017-11-19T03:54:16.091Z,80.85
2017-11-19T03:56:43.543Z,80.76
2017-11-19T03:59:10.998Z,80.87
2017-11-19T04:01:38.431Z,80.90
2017-11-19T04:04:05.956Z,80.92
2017-11-19T04:06:33.420Z,81.02
2017-11-19T04:09:00.905Z,81.13
2017-11-19T04:11:28.401Z,80.96
2017-11-19T04:13:55.945Z,81.24
2017-11-19T04:16:23.462Z,81.30
2017-11-19T04:18:50.926Z,81.39
2017-11-19T04:21:18.384Z,81.54
2017-11-19T04:23:45.943Z,81.41
2017-11-19T04:26:13.457Z,81.44
2017-11-19T04:28:50.537Z,81.53
2017-11-19T04:31:18.112Z,81.56
2017-11-19T04:33:45.576Z,81.51
2017-11-19T04:36:13.233Z,81.33
2017-11-19T04:38:40.705Z,81.32
2017-11-19T04:41:08.116Z,81.48
2017-11-19T04:43:35.579Z,81.36
2017-11-19T04:46:03.036Z,81.51
2017-11-19T04:48:30.538Z,81.49
2017-11-19T04:50:58.002Z,81.72
2017-11-19T04:53:25.438Z,81.71
2017-11-19T04:55:52.943Z,81.87
2017-11-19T04:58:20.359Z,81.87
2017-11-19T05:00:47.796Z,81.90
2017-11-19T05:03:15.294Z,82.04
2017-11-19T05:05:42.886Z,82.00
2017-11-19T05:08:11.279Z,81.69
2017-11-19T05:10:38.720Z,81.90
2017-11-19T05:13:06.273Z,81.75
2017-11-19T05:15:33.697Z,81.46
2017-11-19T05:18:01.263Z,81.14
2017-11-19T05:20:33.673Z,81.06
2017-11-19T05:23:01.128Z,81.30
2017-11-19T05:25:28.690Z,81.05
2017-11-19T05:27:56.205Z,81.11
2017-11-19T05:30:23.720Z,81.21
2017-11-19T05:32:51.183Z,81.09
2017-11-19T05:35:18.690Z,81.06
2017-11-19T05:37:46.249Z,81.15
2017-11-19T05:40:13.754Z,81.10
2017-11-19T05:42:41.298Z,81.25
2017-11-19T05:45:08.739Z,81.17
2017-11-19T05:47:37.136Z,81.12
2017-11-19T05:50:04.734Z,81.18
2017-11-19T05:52:32.194Z,81.17
2017-11-19T05:55:00.698Z,81.32
2017-11-19T05:57:28.815Z,81.37
2017-11-19T05:59:56.259Z,81.36
2017-11-19T06:02:24.650Z,81.24
2017-11-19T06:04:52.209Z,81.08
2017-11-19T06:07:19.643Z,81.00
2017-11-19T06:09:47.114Z,81.08
2017-11-19T06:12:14.533Z,81.01
2017-11-19T06:14:42.013Z,80.98
2017-11-19T06:17:09.553Z,81.05
2017-11-19T06:19:37.003Z,81.15
2017-11-19T06:22:04.555Z,80.93
2017-11-19T06:24:32.056Z,80.89
2017-11-19T06:26:59.558Z,80.87
2017-11-19T06:29:27.025Z,80.75
2017-11-19T06:31:54.526Z,80.82
2017-11-19T06:34:22.082Z,80.57
2017-11-19T06:36:49.560Z,80.41
2017-11-19T06:39:17.092Z,80.35
2017-11-19T06:41:44.584Z,80.22
2017-11-19T06:44:12.112Z,80.19
2017-11-19T06:46:39.560Z,80.26
2017-11-19T06:49:07.154Z,80.13
2017-11-19T06:51:34.626Z,80.00
2017-11-19T06:54:02.186Z,79.87
2017-11-19T06:56:29.714Z,79.90
2017-11-19T06:58:57.229Z,79.75
2017-11-19T07:01:24.688Z,79.67
2017-11-19T07:03:52.162Z,79.29
2017-11-19T07:06:19.692Z,79.38
2017-11-19T07:08:47.289Z,79.44
2017-11-19T07:11:14.853Z,79.31
2017-11-19T07:13:42.546Z,79.23
2017-11-19T07:16:10.048Z,78.91
2017-11-19T07:18:37.493Z,78.79
2017-11-19T07:21:04.932Z,78.79
2017-11-19T07:23:32.407Z,78.70
2017-11-19T07:25:59.865Z,78.52
2017-11-19T07:28:27.359Z,78.22
2017-11-19T07:30:54.807Z,78.21
2017-11-19T07:33:22.408Z,77.92
2017-11-19T07:35:49.956Z,77.96
2017-11-19T07:38:17.478Z,77.84
2017-11-19T07:40:45.452Z,77.80
2017-11-19T07:43:13.009Z,77.71
2017-11-19T07:45:40.572Z,77.63
2017-11-19T07:48:08.278Z,77.59
2017-11-19T07:50:35.809Z,77.24
2017-11-19T07:53:03.282Z,77.24
2017-11-19T07:55:30.782Z,77.41
2017-11-19T07:57:58.271Z,77.14
2017-11-19T08:00:25.799Z,76.98
2017-11-19T08:02:53.234Z,76.82
2017-11-19T08:05:20.685Z,76.90
2017-11-19T08:07:49.728Z,76.85
2017-11-19T08:10:17.249Z,76.67
2017-11-19T08:12:44.859Z,76.70
2017-11-19T08:15:12.356Z,76.74
2017-11-19T08:17:40.051Z,76.79
2017-11-19T08:20:07.617Z,76.82
2017-11-19T08:22:35.064Z,76.98
2017-11-19T08:25:02.643Z,77.01
2017-11-19T08:27:30.108Z,77.01
2017-11-19T08:29:57.561Z,76.63
2017-11-19T08:32:25.046Z,76.60
2017-11-19T08:34:52.577Z,76.43
2017-11-19T08:37:20.030Z,76.25
2017-11-19T08:39:47.846Z,76.33
2017-11-19T08:42:15.368Z,76.25
2017-11-19T08:44:42.837Z,76.39
2017-11-19T08:47:10.456Z,76.47
2017-11-19T08:49:43.167Z,76.17
2017-11-19T08:52:10.613Z,75.90
2017-11-19T08:54:38.126Z,75.72
2017-11-19T08:57:05.607Z,75.58
2017-11-19T08:59:33.078Z,75.41
2017-11-19T09:02:00.600Z,75.61
2017-11-19T09:04:28.080Z,75.35
2017-11-19T09:06:55.627Z,74.98
2017-11-19T09:09:23.165Z,74.47
2017-11-19T09:11:50.626Z,74.15
2017-11-19T09:14:18.124Z,74.15
2017-11-19T09:16:45.586Z,74.15
2017-11-19T09:19:13.185Z,73.68
2017-11-19T09:21:40.724Z,73.51
2017-11-19T09:24:08.263Z,73.31
2017-11-19T09:26:35.755Z,73.25
2017-11-19T09:29:03.297Z,73.42
2017-11-19T09:31:30.842Z,73.42
2017-11-19T09:33:58.398Z,73.04
2017-11-19T09:36:25.850Z,72.57
2017-11-19T09:38:53.315Z,72.54
2017-11-19T09:41:20.830Z,72.45
2017-11-19T09:43:48.381Z,72.35
2017-11-19T09:46:15.830Z,72.32
2017-11-19T09:48:43.449Z,72.39
2017-11-19T09:51:10.897Z,72.27
2017-11-19T09:53:38.424Z,71.91
2017-11-19T09:56:05.883Z,71.65
2017-11-19T09:58:33.369Z,70.92
2017-11-19T10:01:00.877Z,71.13
2017-11-19T10:03:28.468Z,71.17
2017-11-19T10:05:56.011Z,71.38
2017-11-19T10:08:23.586Z,71.67
2017-11-19T10:10:51.431Z,71.88
2017-11-19T10:13:18.903Z,71.79
2017-11-19T10:15:46.450Z,71.98
2017-11-19T10:18:13.986Z,71.73
2017-11-19T10:21:05.383Z,71.44
2017-11-19T10:23:33.305Z,71.18
2017-11-19T10:26:00.854Z,71.14
2017-11-19T10:28:28.505Z,71.56
2017-11-19T10:30:56.025Z,71.70
2017-11-19T10:33:23.534Z,71.88
2017-11-19T10:35:51.341Z,71.89
2017-11-19T10:38:19.213Z,72.38
2017-11-19T10:40:46.677Z,72.63
2017-11-19T10:43:14.234Z,72.77
2017-11-19T10:45:42.191Z,73.07
2017-11-19T10:48:09.779Z,73.21
2017-11-19T10:50:37.267Z,72.60
2017-11-19T10:53:04.800Z,72.57
2017-11-19T10:55:32.279Z,72.61
2017-11-19T10:57:59.801Z,72.81
2017-11-19T11:00:27.608Z,72.44
2017-11-19T11:02:55.824Z,72.34
2017-11-19T11:05:23.409Z,72.41
2017-11-19T11:07:51.102Z,72.29
2017-11-19T11:10:19.523Z,72.33
2017-11-19T11:12:47.068Z,72.30
2017-11-19T11:15:14.613Z,72.16
2017-11-19T11:17:42.115Z,72.24
2017-11-19T11:20:09.651Z,71.84
2017-11-19T11:22:37.117Z,71.71
2017-11-19T11:25:04.850Z,72.06
2017-11-19T11:27:32.332Z,72.24
2017-11-19T11:29:59.921Z,71.33
2017-11-19T11:32:27.421Z,71.03
2017-11-19T11:34:55.038Z,71.25
2017-11-19T11:37:22.858Z,71.52
2017-11-19T11:39:50.341Z,71.94
2017-11-19T11:42:17.828Z,71.73
2017-11-19T11:44:45.409Z,71.72
2017-11-19T11:47:12.980Z,72.03
2017-11-19T11:49:40.672Z,72.13
2017-11-19T11:52:08.975Z,71.98
2017-11-19T11:54:36.436Z,72.11
2017-11-19T11:57:03.996Z,71.32
2017-11-19T11:59:31.532Z,71.48
2017-11-19T12:01:59.005Z,71.94
2017-11-19T12:04:26.579Z,72.44
2017-11-19T12:06:56.334Z,73.23
2017-11-19T12:09:23.932Z,73.94
2017-11-19T12:11:51.404Z,74.34
2017-11-19T12:14:18.970Z,74.79
2017-11-19T12:16:48.145Z,75.39
2017-11-19T12:19:20.883Z,75.57
2017-11-19T12:21:48.333Z,76.06
2017-11-19T12:24:16.203Z,76.09
2017-11-19T12:26:43.700Z,76.26
2017-11-19T12:29:11.364Z,76.25
2017-11-19T12:31:38.900Z,75.94
2017-11-19T12:34:06.401Z,76.40
2017-11-19T12:36:33.894Z,76.83
2017-11-19T12:39:01.405Z,77.88
2017-11-19T12:41:28.992Z,78.44
2017-11-19T12:43:56.469Z,78.86
2017-11-19T12:46:24.207Z,78.45
2017-11-19T12:48:56.957Z,78.40
2017-11-19T12:51:24.452Z,77.95
2017-11-19T12:53:51.909Z,78.21
2017-11-19T12:56:19.452Z,78.31
2017-11-19T12:58:47.479Z,77.82
2017-11-19T13:01:15.269Z,77.23
2017-11-19T13:03:42.814Z,77.09
2017-11-19T13:06:10.588Z,76.49
2017-11-19T13:08:38.355Z,75.93
2017-11-19T13:11:05.899Z,75.95
2017-11-19T13:13:33.385Z,75.94
2017-11-19T13:16:00.966Z,76.38
2017-11-19T13:18:28.597Z,77.07
2017-11-19T13:20:56.107Z,77.42
2017-11-19T13:23:23.966Z,77.53
2017-11-19T13:25:51.729Z,77.36
2017-11-19T13:28:22.422Z,76.70
2017-11-19T13:30:49.981Z,76.78
2017-11-19T13:33:17.611Z,76.74
2017-11-19T13:35:45.207Z,76.67
2017-11-19T13:38:12.695Z,76.44
2017-11-19T13:40:40.290Z,76.46
2017-11-19T13:43:08.018Z,76.65
2017-11-19T13:45:35.588Z,76.95
2017-11-19T13:48:03.214Z,77.37
2017-11-19T13:50:31.098Z,78.11
2017-11-19T13:52:58.672Z,79.10
2017-11-19T13:55:26.434Z,79.46
2017-11-19T13:57:53.981Z,80.25
2017-11-19T14:00:40.869Z,80.34
2017-11-19T14:03:08.419Z,81.08
2017-11-19T14:05:36.207Z,81.03
2017-11-19T14:08:03.864Z,80.51
2017-11-19T14:10:31.400Z,80.60
2017-11-19T14:12:58.911Z,80.18
2017-11-19T14:15:26.537Z,79.35
2017-11-19T14:17:54.097Z,79.36
2017-11-19T14:20:21.722Z,79.31
2017-11-19T14:22:50.129Z,78.50
2017-11-19T14:25:17.793Z,78.63
2017-11-19T14:27:45.517Z,78.89
2017-11-19T14:30:37.842Z,78.83
2017-11-19T14:33:05.478Z,79.28
2017-11-19T14:35:33.288Z,79.05
2017-11-19T14:38:01.112Z,78.32
2017-11-19T14:40:28.756Z,78.33
2017-11-19T14:43:00.233Z,77.43
2017-11-19T14:45:28.168Z,77.29
2017-11-19T14:47:56.563Z,77.15
2017-11-19T14:50:24.930Z,77.15
2017-11-19T14:52:52.548Z,77.14
2017-11-19T14:55:23.741Z,76.78
2017-11-19T14:57:51.354Z,76.94
2017-11-19T15:00:28.569Z,76.63
2017-11-19T15:02:56.148Z,77.13
2017-11-19T15:05:25.586Z,76.69
2017-11-19T15:07:54.382Z,76.61
2017-11-19T15:10:22.590Z,76.83
2017-11-19T15:12:50.921Z,76.74
2017-11-19T15:15:18.574Z,77.05
2017-11-19T15:17:46.064Z,77.76
2017-11-19T15:20:13.680Z,77.35
2017-11-19T15:22:41.194Z,77.53
2017-11-19T15:25:08.709Z,77.27
2017-11-19T15:27:36.303Z,77.41
2017-11-19T15:30:03.861Z,77.22
2017-11-19T15:32:31.364Z,77.37
2017-11-19T15:34:58.913Z,77.51
2017-11-19T15:37:26.489Z,77.37
2017-11-19T15:39:54.985Z,78.11
2017-11-19T15:42:22.511Z,78.41
2017-11-19T15:44:49.967Z,78.77
2017-11-19T15:47:17.570Z,78.81
2017-11-19T15:49:45.210Z,78.90
2017-11-19T15:52:13.185Z,78.81
2017-11-19T15:54:40.758Z,78.80
2017-11-19T15:57:08.281Z,78.69
2017-11-19T15:59:35.841Z,78.72
2017-11-19T16:02:03.389Z,78.88
2017-11-19T16:04:31.947Z,79.06
2017-11-19T16:06:59.553Z,79.54
2017-11-19T16:09:27.377Z,79.76
2017-11-19T16:11:58.047Z,79.71
2017-11-19T16:14:26.419Z,79.91
2017-11-19T16:16:58.292Z,79.98
2017-11-19T16:19:29.580Z,80.18
2017-11-19T16:21:57.291Z,79.96
2017-11-19T16:24:24.826Z,79.92
2017-11-19T16:26:52.308Z,79.66
2017-11-19T16:29:39.120Z,79.44
2017-11-19T16:32:06.642Z,79.50
2017-11-19T16:34:34.218Z,79.37
2017-11-19T16:37:01.683Z,79.37
2017-11-19T16:39:29.268Z,79.46
2017-11-19T16:41:59.499Z,79.46
2017-11-19T16:44:27.271Z,79.52
2017-11-19T16:46:54.754Z,79.58
2017-11-19T16:49:22.282Z,79.63
2017-11-19T16:51:49.726Z,79.71
2017-11-19T16:54:17.158Z,79.58
2017-11-19T16:56:44.627Z,79.52
2017-11-19T16:59:12.172Z,79.40
2017-11-19T17:01:39.649Z,79.29
2017-11-19T17:04:07.210Z,79.11
2017-11-19T17:06:34.752Z,78.76
2017-11-19T17:09:02.209Z,78.34
2017-11-19T17:11:29.725Z,78.09
2017-11-19T17:13:57.509Z,77.89
2017-11-19T17:16:25.276Z,77.59
2017-11-19T17:18:52.859Z,77.93
2017-11-19T17:21:20.317Z,78.17
2017-11-19T17:23:47.847Z,79.07
2017-11-19T17:26:15.339Z,79.58
2017-11-19T17:28:42.944Z,80.04
2017-11-19T17:31:11.549Z,79.93
2017-11-19T17:33:39.576Z,80.49
2017-11-19T17:36:12.659Z,80.86
2017-11-19T17:38:40.432Z,81.02
2017-11-19T17:41:08.032Z,81.65
2017-11-19T17:43:35.832Z,82.47
2017-11-19T17:46:03.447Z,82.22
2017-11-19T17:48:31.096Z,81.85
2017-11-19T17:51:08.311Z,81.87
2017-11-19T17:53:35.909Z,81.35
2017-11-19T17:56:03.585Z,81.32
2017-11-19T17:58:31.150Z,81.91
2017-11-19T18:00:58.894Z,81.99
2017-11-19T18:03:26.562Z,82.28
2017-11-19T18:05:54.058Z,82.43
2017-11-19T18:08:21.745Z,82.48
2017-11-19T18:10:49.339Z,82.50
2017-11-19T18:13:16.909Z,82.46
2017-11-19T18:15:44.414Z,82.47
2017-11-19T18:18:12.294Z,82.19
2017-11-19T18:20:39.746Z,81.98
2017-11-19T18:23:07.483Z,81.92
2017-11-19T18:25:35.073Z,82.07
2017-11-19T18:28:03.736Z,81.83
2017-11-19T18:30:37.220Z,82.25
2017-11-19T18:33:04.816Z,82.72
2017-11-19T18:35:32.347Z,82.92
2017-11-19T18:37:59.938Z,83.57
2017-11-19T18:43:34.873Z,84.02
2017-11-19T18:46:02.374Z,84.34
2017-11-19T18:48:30.936Z,84.64
2017-11-19T18:51:17.919Z,84.93
2017-11-19T18:53:46.052Z,84.77
2017-11-19T18:56:13.564Z,84.85
2017-11-19T18:58:41.072Z,84.79
2017-11-19T19:01:08.656Z,84.57
2017-11-19T19:03:36.333Z,84.75
2017-11-19T19:06:04.771Z,84.13
2017-11-19T19:08:32.540Z,84.54
2017-11-19T19:11:01.238Z,84.48
2017-11-19T19:13:28.831Z,84.63
2017-11-19T19:15:56.667Z,84.49
2017-11-19T19:18:24.618Z,84.27
2017-11-19T19:20:52.576Z,84.34
2017-11-19T19:23:20.203Z,84.35
2017-11-19T19:25:48.140Z,84.40
2017-11-19T19:28:15.717Z,84.43
2017-11-19T19:30:43.378Z,84.45
2017-11-19T19:33:11.290Z,84.49
2017-11-19T19:35:38.916Z,84.28
2017-11-19T19:38:06.360Z,84.43
2017-11-19T19:40:33.929Z,84.44
2017-11-19T19:43:01.427Z,84.40
2017-11-19T19:45:29.249Z,84.19
2017-11-19T19:47:56.791Z,84.17
2017-11-19T19:50:29.697Z,84.19
2017-11-19T19:52:58.364Z,83.46
2017-11-19T19:55:25.945Z,83.13
2017-11-19T19:57:54.268Z,82.87
2017-11-19T20:00:22.932Z,83.16
2017-11-19T20:02:50.536Z,84.60
2017-11-19T20:05:18.248Z,83.84
2017-11-19T20:07:46.681Z,83.32
2017-11-19T20:10:14.344Z,82.53
2017-11-19T20:12:41.879Z,81.82
2017-11-19T20:15:09.357Z,81.65
2017-11-19T20:17:36.993Z,81.74
2017-11-19T20:20:04.582Z,82.20
2017-11-19T20:22:32.135Z,82.42
2017-11-19T20:24:59.951Z,82.79
2017-11-19T20:27:27.552Z,82.95
2017-11-19T20:29:55.165Z,83.07
2017-11-19T20:32:22.688Z,83.27
2017-11-19T20:34:50.249Z,83.61
2017-11-19T20:37:17.748Z,84.26
2017-11-19T20:39:45.367Z,84.75
2017-11-19T20:42:12.916Z,85.07
2017-11-19T20:44:41.735Z,85.37
2017-11-19T20:47:09.472Z,85.63
2017-11-19T20:49:37.274Z,85.65
2017-11-19T20:52:05.045Z,85.58
2017-11-19T20:54:34.646Z,85.66
2017-11-19T20:57:02.281Z,85.58
2017-11-19T20:59:34.955Z,85.55
2017-11-19T21:02:03.354Z,85.57
2017-11-19T21:04:31.078Z,85.69
2017-11-19T21:06:58.585Z,85.51
2017-11-19T21:09:26.197Z,85.40
2017-11-19T21:11:53.776Z,85.27
2017-11-19T21:14:21.456Z,85.17
2017-11-19T21:16:48.994Z,84.98
2017-11-19T21:19:16.606Z,84.80
2017-11-19T21:21:44.136Z,84.90
2017-11-19T21:24:11.711Z,84.61
2017-11-19T21:26:39.562Z,84.67
2017-11-19T21:29:07.030Z,84.55
2017-11-19T21:31:34.967Z,84.44
2017-11-19T21:34:03.675Z,84.39
2017-11-19T21:36:32.014Z,84.31
2017-11-19T21:38:59.749Z,84.30
2017-11-19T21:41:27.676Z,84.46
2017-11-19T21:43:55.345Z,84.49
2017-11-19T21:46:22.873Z,84.69
2017-11-19T21:48:50.458Z,84.52
2017-11-19T21:51:18.215Z,84.50
2017-11-19T21:53:45.753Z,84.46
2017-11-19T21:56:14.179Z,84.71
2017-11-19T21:58:41.759Z,84.64
2017-11-19T22:01:09.305Z,84.80
2017-11-19T22:03:36.906Z,84.57
2017-11-19T22:06:04.641Z,84.40
2017-11-19T22:08:32.109Z,84.25
2017-11-19T22:11:05.770Z,84.15
2017-11-19T22:13:33.657Z,84.12
2017-11-19T22:16:01.260Z,84.06
2017-11-19T22:18:28.890Z,83.64
2017-11-19T22:20:56.377Z,83.65
2017-11-19T22:23:24.701Z,83.62
2017-11-19T22:25:53.345Z,83.51
2017-11-19T22:28:21.025Z,83.66
2017-11-19T22:30:48.662Z,83.73
2017-11-19T22:33:16.216Z,83.64
2017-11-19T22:35:43.943Z,83.60
2017-11-19T22:38:12.369Z,83.40
2017-11-19T22:40:39.945Z,82.55
2017-11-19T22:43:07.419Z,82.72
2017-11-19T22:45:35.163Z,82.69
2017-11-19T22:48:02.743Z,82.27
2017-11-19T22:50:30.489Z,81.61
2017-11-19T22:52:58.024Z,81.43
2017-11-19T22:55:25.690Z,81.37
2017-11-19T22:57:53.145Z,81.31
2017-11-19T23:00:20.631Z,81.28
2017-11-19T23:02:48.165Z,81.14
2017-11-19T23:05:16.601Z,81.03
2017-11-19T23:07:44.105Z,81.01
2017-11-19T23:10:25.801Z,81.22
2017-11-19T23:12:53.510Z,81.27
2017-11-19T23:15:20.946Z,81.36
2017-11-19T23:17:48.483Z,81.48
2017-11-19T23:20:15.992Z,81.53
2017-11-19T23:22:43.689Z,81.69
2017-11-19T23:25:11.299Z,81.79
2017-11-19T23:27:38.818Z,81.92
2017-11-19T23:30:25.630Z,81.80
2017-11-19T23:32:53.085Z,81.59
2017-11-19T23:35:20.639Z,81.60
2017-11-19T23:37:48.178Z,81.54
2017-11-19T23:40:15.752Z,81.46
2017-11-19T23:42:43.414Z,81.46
2017-11-19T23:45:11.134Z,81.26
2017-11-19T23:47:38.644Z,80.99
2017-11-19T23:50:06.117Z,81.04
2017-11-19T23:52:33.561Z,80.85
2017-11-19T23:55:01.070Z,81.07
2017-11-19T23:57:28.588Z,81.04
2017-11-19T23:59:56.484Z,81.08
